Time;durP1;ratioP1;P1;durP2;ratioP2;P2;SDS_P1;SDS_P2;PMS_P1;PMS_P2;Temp;Humidity;BMP_temperature;BMP_pressure;BME280_temperature;BME280_humidity;BME280_pressure;Samples;Min_cycle;Max_cycle;Signal;HPM_P1;HPM_P2
2024/01/13 00:01:55;;;;;;;;;;;16.40;40.30;;;;;;1609928;73;722;-72
2024/01/13 00:03:57;;;;;;;;;;;16.50;40.40;;;;;;1597040;73;759;-75
2024/01/13 00:05:59;;;;;;;;;;;16.50;40.40;;;;;;1592725;73;605;-74
2024/01/13 00:08:01;;;;;;;;;;;16.40;40.30;;;;;;1607171;73;1097;-75
2024/01/13 00:10:03;;;;;;;;;;;16.40;40.30;;;;;;1599966;73;734;-76
2024/01/13 00:12:05;;;;;;;;;;;16.40;40.30;;;;;;1601468;73;763;-75
2024/01/13 00:14:07;;;;;;;;;;;16.50;40.40;;;;;;1601610;73;712;-76
2024/01/13 00:16:09;;;;;;;;;;;16.50;40.40;;;;;;1606165;73;718;-74
2024/01/13 00:18:11;;;;;;;;;;;16.50;40.40;;;;;;1588190;73;1123;-73
2024/01/13 00:20:12;;;;;;;;;;;16.50;40.30;;;;;;1583791;73;1948;-75
2024/01/13 00:22:14;;;;;;;;;;;16.50;40.30;;;;;;1601363;73;724;-75
2024/01/13 00:24:16;;;;;;;;;;;16.50;40.30;;;;;;1600213;73;603;-74
2024/01/13 00:26:18;;;;;;;;;;;16.50;40.30;;;;;;1598729;73;1106;-72
2024/01/13 00:28:20;;;;;;;;;;;16.50;40.30;;;;;;1605687;73;572;-73
2024/01/13 00:30:22;;;;;;;;;;;16.50;40.30;;;;;;1604456;73;706;-73
2024/01/13 00:32:24;;;;;;;;;;;16.50;40.30;;;;;;1601232;73;627;-72
2024/01/13 00:34:25;;;;;;;;;;;16.50;40.20;;;;;;1608507;73;703;-75
2024/01/13 00:36:27;;;;;;;;;;;16.50;40.30;;;;;;1594380;73;1192;-73
2024/01/13 00:38:29;;;;;;;;;;;16.40;40.20;;;;;;1588883;73;685;-73
2024/01/13 00:40:31;;;;;;;;;;;16.50;40.30;;;;;;1595249;73;1938;-73
2024/01/13 00:42:33;;;;;;;;;;;16.50;40.30;;;;;;1588580;73;691;-69
2024/01/13 00:44:35;;;;;;;;;;;16.40;40.20;;;;;;1610675;73;1419;-73
2024/01/13 00:46:37;;;;;;;;;;;16.50;40.30;;;;;;1598110;73;1158;-75
2024/01/13 00:48:39;;;;;;;;;;;16.50;40.30;;;;;;1615809;73;725;-73
2024/01/13 00:50:41;;;;;;;;;;;16.40;40.20;;;;;;1597006;73;715;-74
2024/01/13 00:52:42;;;;;;;;;;;16.50;40.30;;;;;;1595809;73;730;-73
2024/01/13 00:54:44;;;;;;;;;;;16.50;40.30;;;;;;1598666;73;611;-72
2024/01/13 00:56:46;;;;;;;;;;;16.50;40.30;;;;;;1610688;73;1171;-72
2024/01/13 00:58:48;;;;;;;;;;;16.40;40.20;;;;;;1601514;73;668;-75
2024/01/13 01:00:50;;;;;;;;;;;16.50;40.30;;;;;;1597082;73;711;-74
2024/01/13 01:02:52;;;;;;;;;;;16.50;40.30;;;;;;1610390;73;566;-72
2024/01/13 01:04:54;;;;;;;;;;;16.40;40.20;;;;;;1601318;73;758;-72
2024/01/13 01:06:56;;;;;;;;;;;16.50;40.30;;;;;;1616557;73;1118;-74
2024/01/13 01:08:57;;;;;;;;;;;16.40;40.20;;;;;;1601370;73;715;-70
2024/01/13 01:10:59;;;;;;;;;;;15.70;39.80;;;;;;1608350;73;767;-72
2024/01/13 01:13:01;;;;;;;;;;;16.40;40.20;;;;;;1595928;73;598;-69
2024/01/13 01:15:03;;;;;;;;;;;16.50;40.30;;;;;;1602776;73;716;-75
2024/01/13 01:17:05;;;;;;;;;;;16.50;40.30;;;;;;1608178;73;1153;-73
2024/01/13 01:19:07;;;;;;;;;;;16.40;40.20;;;;;;1603425;73;1928;-72
2024/01/13 01:21:09;;;;;;;;;;;16.40;40.20;;;;;;1598756;73;698;-71
2024/01/13 01:23:10;;;;;;;;;;;16.50;40.30;;;;;;1596145;73;719;-73
2024/01/13 01:25:12;;;;;;;;;;;16.40;40.20;;;;;;1599063;73;726;-73
2024/01/13 01:27:14;;;;;;;;;;;16.40;40.20;;;;;;1590053;73;1150;-75
2024/01/13 01:29:16;;;;;;;;;;;16.40;40.20;;;;;;1606812;73;588;-74
2024/01/13 01:31:18;;;;;;;;;;;16.40;40.20;;;;;;1602509;73;729;-73
2024/01/13 01:33:20;;;;;;;;;;;16.50;40.30;;;;;;1594711;73;750;-73
2024/01/13 01:35:22;;;;;;;;;;;16.40;40.20;;;;;;1606072;73;716;-74
2024/01/13 01:37:24;;;;;;;;;;;16.40;40.20;;;;;;1605009;73;1124;-70
2024/01/13 01:39:25;;;;;;;;;;;16.50;40.30;;;;;;1606482;73;1943;-73
2024/01/13 01:41:27;;;;;;;;;;;16.40;40.30;;;;;;1602479;73;1593;-74
2024/01/13 01:43:29;;;;;;;;;;;16.40;40.20;;;;;;1604654;73;775;-75
2024/01/13 01:45:31;;;;;;;;;;;16.40;40.20;;;;;;1596314;73;709;-75
2024/01/13 01:47:33;;;;;;;;;;;16.40;40.20;;;;;;1603000;73;1182;-72
2024/01/13 01:49:35;;;;;;;;;;;16.40;40.20;;;;;;1597659;73;608;-75
2024/01/13 01:51:37;;;;;;;;;;;16.40;40.20;;;;;;1603547;73;740;-73
2024/01/13 01:53:39;;;;;;;;;;;16.40;40.20;;;;;;1603426;72;709;-72
2024/01/13 01:55:41;;;;;;;;;;;16.40;40.20;;;;;;1600701;73;751;-74
2024/01/13 01:57:43;;;;;;;;;;;16.40;40.20;;;;;;1587931;73;1203;-74
2024/01/13 01:59:44;;;;;;;;;;;16.40;40.20;;;;;;1600351;73;1937;-74
2024/01/13 02:01:46;;;;;;;;;;;16.40;40.20;;;;;;1611450;73;737;-74
2024/01/13 02:03:49;;;;;;;;;;;16.40;40.30;;;;;;1599037;73;684;-75
2024/01/13 02:05:51;;;;;;;;;;;16.40;40.30;;;;;;1591952;73;736;-72
2024/01/13 02:07:53;;;;;;;;;;;16.40;40.30;;;;;;1593975;73;1124;-75
2024/01/13 02:09:55;;;;;;;;;;;16.40;40.20;;;;;;1609012;73;747;-73
2024/01/13 02:11:57;;;;;;;;;;;16.40;40.30;;;;;;1593260;73;715;-75
2024/01/13 02:13:58;;;;;;;;;;;16.40;40.20;;;;;;1603184;73;728;-73
2024/01/13 02:16:00;;;;;;;;;;;16.40;40.30;;;;;;1605559;72;695;-73
2024/01/13 02:18:02;;;;;;;;;;;16.40;40.20;;;;;;1609929;73;1103;-76
2024/01/13 02:20:07;;;;;;;;;;;16.40;40.30;;;;;;1606651;73;1922;-75
2024/01/13 02:22:09;;;;;;;;;;;16.40;40.20;;;;;;1604018;73;604;-74
2024/01/13 02:24:11;;;;;;;;;;;16.40;40.30;;;;;;1599181;73;724;-72
2024/01/13 02:26:13;;;;;;;;;;;16.40;40.20;;;;;;1595615;73;1095;-72
2024/01/13 02:28:16;;;;;;;;;;;16.40;40.30;;;;;;1592386;73;730;-73
2024/01/13 02:30:18;;;;;;;;;;;16.40;40.20;;;;;;1603922;73;756;-74
2024/01/13 02:32:20;;;;;;;;;;;16.40;40.30;;;;;;1601363;73;716;-73
2024/01/13 02:34:22;;;;;;;;;;;16.40;40.30;;;;;;1601097;73;713;-74
2024/01/13 02:36:24;;;;;;;;;;;16.40;40.20;;;;;;1599752;73;1112;-73
2024/01/13 02:38:25;;;;;;;;;;;16.40;40.20;;;;;;1602404;73;1611;-76
2024/01/13 02:40:27;;;;;;;;;;;16.40;40.30;;;;;;1606047;72;1943;-70
2024/01/13 02:42:29;;;;;;;;;;;16.40;40.20;;;;;;1604975;73;762;-76
2024/01/13 02:44:31;;;;;;;;;;;16.40;40.20;;;;;;1538915;75;715;-70
2024/01/13 02:46:33;;;;;;;;;;;16.40;40.20;;;;;;1537866;75;1201;-73
2024/01/13 02:48:36;;;;;;;;;;;16.40;40.20;;;;;;1548105;75;735;-75
2024/01/13 02:50:38;;;;;;;;;;;16.40;40.30;;;;;;1534097;75;1491;-72
2024/01/13 02:52:42;;;;;;;;;;;16.40;40.40;;;;;;1537064;75;719;-72
2024/01/13 02:54:44;;;;;;;;;;;16.40;40.30;;;;;;1578009;74;723;-72
2024/01/13 02:56:46;;;;;;;;;;;16.40;40.30;;;;;;1575871;74;1156;-75
2024/01/13 02:58:48;;;;;;;;;;;16.30;40.30;;;;;;1569086;74;707;-73
2024/01/13 03:00:50;;;;;;;;;;;16.40;40.30;;;;;;1571518;74;1914;-71
2024/01/13 03:02:52;;;;;;;;;;;16.40;40.30;;;;;;1571680;74;663;-75
2024/01/13 03:04:54;;;;;;;;;;;16.30;40.30;;;;;;1544275;75;704;-73
2024/01/13 03:06:56;;;;;;;;;;;16.40;40.30;;;;;;1565754;74;1132;-76
2024/01/13 03:08:58;;;;;;;;;;;16.30;40.30;;;;;;1567660;74;706;-72
2024/01/13 03:10:59;;;;;;;;;;;16.30;40.30;;;;;;1570233;74;696;-71
2024/01/13 03:13:01;;;;;;;;;;;15.90;40.00;;;;;;1583839;74;698;-75
2024/01/13 03:15:03;;;;;;;;;;;16.40;40.30;;;;;;1583749;74;706;-75
2024/01/13 03:17:05;;;;;;;;;;;16.30;40.40;;;;;;1595642;73;1173;-70
2024/01/13 03:19:07;;;;;;;;;;;16.30;40.40;;;;;;1602017;73;700;-70
2024/01/13 03:21:10;;;;;;;;;;;16.30;40.40;;;;;;1602813;73;1966;-73
2024/01/13 03:23:11;;;;;;;;;;;16.40;40.40;;;;;;1606362;73;734;-73
2024/01/13 03:25:13;;;;;;;;;;;16.30;40.40;;;;;;1601401;73;747;-76
2024/01/13 03:27:15;;;;;;;;;;;16.30;40.30;;;;;;1611620;73;1145;-73
2024/01/13 03:29:17;;;;;;;;;;;16.30;40.40;;;;;;1605368;73;680;-73
2024/01/13 03:31:19;;;;;;;;;;;16.30;40.30;;;;;;1603619;73;696;-74
2024/01/13 03:33:21;;;;;;;;;;;16.40;40.30;;;;;;1604727;73;1443;-73
2024/01/13 03:35:23;;;;;;;;;;;16.30;40.30;;;;;;1603260;73;801;-75
2024/01/13 03:37:24;;;;;;;;;;;16.30;40.30;;;;;;1605474;73;1085;-74
2024/01/13 03:39:26;;;;;;;;;;;16.30;40.20;;;;;;1610258;73;673;-73
2024/01/13 03:41:28;;;;;;;;;;;16.30;40.20;;;;;;1608369;73;1938;-72
2024/01/13 03:43:30;;;;;;;;;;;16.40;40.20;;;;;;1613826;73;626;-72
2024/01/13 03:45:32;;;;;;;;;;;16.40;40.30;;;;;;1597052;73;585;-72
2024/01/13 03:47:34;;;;;;;;;;;16.40;40.20;;;;;;1596317;73;1151;-75
2024/01/13 03:49:36;;;;;;;;;;;16.30;40.20;;;;;;1604568;73;719;-71
2024/01/13 03:51:37;;;;;;;;;;;16.40;40.20;;;;;;1605971;73;637;-74
2024/01/13 03:53:39;;;;;;;;;;;16.40;40.20;;;;;;1608618;73;716;-75
2024/01/13 03:55:41;;;;;;;;;;;16.40;40.20;;;;;;1592934;73;767;-74
2024/01/13 03:57:43;;;;;;;;;;;16.40;40.20;;;;;;1592555;73;1130;-74
2024/01/13 03:59:46;;;;;;;;;;;16.40;40.20;;;;;;1605782;73;748;-75
2024/01/13 04:01:48;;;;;;;;;;;16.40;40.20;;;;;;1604460;73;1903;-73
2024/01/13 04:03:50;;;;;;;;;;;16.40;40.20;;;;;;1599762;73;691;-74
2024/01/13 04:05:51;;;;;;;;;;;16.40;40.20;;;;;;1600243;73;820;-72
2024/01/13 04:07:53;;;;;;;;;;;16.40;40.10;;;;;;1605466;73;1126;-75
2024/01/13 04:09:55;;;;;;;;;;;16.40;40.20;;;;;;1602066;73;714;-75
2024/01/13 04:11:57;;;;;;;;;;;16.40;40.20;;;;;;1602413;73;816;-70
2024/01/13 04:13:59;;;;;;;;;;;16.50;40.20;;;;;;1599338;73;752;-73
2024/01/13 04:16:01;;;;;;;;;;;16.40;40.10;;;;;;1602328;73;701;-75
2024/01/13 04:18:03;;;;;;;;;;;16.40;40.10;;;;;;1609157;73;1116;-74
2024/01/13 04:20:05;;;;;;;;;;;16.40;40.10;;;;;;1597877;73;1926;-73
2024/01/13 04:22:07;;;;;;;;;;;16.40;40.10;;;;;;1609682;73;696;-73
2024/01/13 04:24:08;;;;;;;;;;;16.40;40.20;;;;;;1598951;73;702;-72
2024/01/13 04:26:10;;;;;;;;;;;16.40;40.10;;;;;;1604555;73;722;-73
2024/01/13 04:28:12;;;;;;;;;;;16.40;40.10;;;;;;1588016;73;1254;-73
2024/01/13 04:30:14;;;;;;;;;;;16.40;40.10;;;;;;1597839;73;1289;-76
2024/01/13 04:32:16;;;;;;;;;;;16.40;40.10;;;;;;1606782;73;786;-72
2024/01/13 04:34:18;;;;;;;;;;;16.40;40.10;;;;;;1599972;73;590;-74
2024/01/13 04:36:20;;;;;;;;;;;16.40;40.10;;;;;;1602464;73;1171;-73
2024/01/13 04:38:22;;;;;;;;;;;16.40;40.10;;;;;;1590543;73;682;-74
2024/01/13 04:40:23;;;;;;;;;;;16.40;40.10;;;;;;1589085;73;1966;-75
2024/01/13 04:42:25;;;;;;;;;;;16.40;40.10;;;;;;1598873;73;554;-74
2024/01/13 04:44:27;;;;;;;;;;;16.40;40.10;;;;;;1606506;73;721;-70
2024/01/13 04:46:29;;;;;;;;;;;16.40;40.10;;;;;;1590632;73;1154;-70
2024/01/13 04:48:31;;;;;;;;;;;16.40;40.10;;;;;;1603297;73;739;-73
2024/01/13 04:50:33;;;;;;;;;;;16.40;40.00;;;;;;1600485;73;605;-73
2024/01/13 04:52:36;;;;;;;;;;;16.50;40.10;;;;;;1601819;73;739;-71
2024/01/13 04:54:38;;;;;;;;;;;16.40;40.00;;;;;;1607583;73;765;-75
2024/01/13 04:56:40;;;;;;;;;;;16.40;40.10;;;;;;1608893;73;1173;-74
2024/01/13 04:58:42;;;;;;;;;;;16.40;40.10;;;;;;1603630;73;592;-73
2024/01/13 05:00:44;;;;;;;;;;;16.40;40.10;;;;;;1595725;73;1932;-74
2024/01/13 05:02:45;;;;;;;;;;;16.40;40.10;;;;;;1591566;73;687;-74
2024/01/13 05:04:47;;;;;;;;;;;16.40;40.00;;;;;;1594516;73;701;-75
2024/01/13 05:06:49;;;;;;;;;;;16.40;40.00;;;;;;1592460;73;1092;-71
2024/01/13 05:08:51;;;;;;;;;;;16.40;40.10;;;;;;1609648;73;679;-70
2024/01/13 05:10:53;;;;;;;;;;;16.40;40.10;;;;;;1597009;73;738;-73
2024/01/13 05:12:55;;;;;;;;;;;16.40;40.10;;;;;;1595636;73;728;-70
2024/01/13 05:14:57;;;;;;;;;;;16.40;40.00;;;;;;1602575;73;729;-75
2024/01/13 05:16:59;;;;;;;;;;;16.40;40.10;;;;;;1603300;73;1107;-72
2024/01/13 05:19:01;;;;;;;;;;;16.40;40.10;;;;;;1602018;73;739;-73
2024/01/13 05:21:03;;;;;;;;;;;16.40;40.10;;;;;;1589358;73;2155;-72
2024/01/13 05:23:04;;;;;;;;;;;16.40;40.10;;;;;;1604304;73;598;-72
2024/01/13 05:25:08;;;;;;;;;;;16.40;40.10;;;;;;1601795;73;624;-73
2024/01/13 05:27:10;;;;;;;;;;;16.40;40.10;;;;;;1614858;73;1554;-73
2024/01/13 05:29:11;;;;;;;;;;;16.40;40.10;;;;;;1591954;73;739;-74
2024/01/13 05:31:13;;;;;;;;;;;16.40;40.10;;;;;;1597191;73;758;-70
2024/01/13 05:33:15;;;;;;;;;;;16.40;40.10;;;;;;1599345;73;700;-72
2024/01/13 05:35:17;;;;;;;;;;;16.40;40.10;;;;;;1599610;73;684;-71
2024/01/13 05:37:19;;;;;;;;;;;16.40;40.10;;;;;;1611582;73;1171;-75
2024/01/13 05:39:21;;;;;;;;;;;16.40;40.10;;;;;;1591492;73;710;-75
2024/01/13 05:41:23;;;;;;;;;;;16.40;40.20;;;;;;1595806;73;1944;-75
2024/01/13 05:43:24;;;;;;;;;;;16.40;40.10;;;;;;1589270;73;759;-75
2024/01/13 05:45:26;;;;;;;;;;;16.40;40.20;;;;;;1594908;73;697;-72
2024/01/13 05:47:28;;;;;;;;;;;16.40;40.10;;;;;;1597506;73;1148;-76
2024/01/13 05:49:30;;;;;;;;;;;16.40;40.10;;;;;;1601997;73;676;-75
2024/01/13 05:51:33;;;;;;;;;;;16.40;40.10;;;;;;1596726;73;619;-72
2024/01/13 05:53:37;;;;;;;;;;;16.30;40.10;;;;;;1599906;73;715;-74
2024/01/13 05:55:38;;;;;;;;;;;16.40;40.10;;;;;;1588765;73;719;-74
2024/01/13 05:57:40;;;;;;;;;;;16.40;40.10;;;;;;1601529;73;1149;-72
2024/01/13 05:59:42;;;;;;;;;;;16.40;40.10;;;;;;1598252;73;716;-73
2024/01/13 06:01:44;;;;;;;;;;;16.40;40.10;;;;;;1601952;73;1936;-73
2024/01/13 06:03:46;;;;;;;;;;;16.40;40.20;;;;;;1599738;73;577;-75
2024/01/13 06:05:48;;;;;;;;;;;16.40;40.20;;;;;;1591377;73;737;-74
2024/01/13 06:07:50;;;;;;;;;;;16.40;40.10;;;;;;1607443;73;1131;-74
2024/01/13 06:09:52;;;;;;;;;;;16.40;40.10;;;;;;1609843;73;708;-75
2024/01/13 06:11:53;;;;;;;;;;;16.40;40.20;;;;;;1600602;73;646;-73
2024/01/13 06:13:56;;;;;;;;;;;16.40;40.10;;;;;;1596909;73;744;-75
2024/01/13 06:15:57;;;;;;;;;;;16.40;40.10;;;;;;1601924;73;755;-70
2024/01/13 06:17:59;;;;;;;;;;;16.40;40.20;;;;;;1607587;73;1142;-70
2024/01/13 06:20:01;;;;;;;;;;;16.30;40.20;;;;;;1606099;73;741;-74
2024/01/13 06:22:03;;;;;;;;;;;16.30;40.10;;;;;;1603040;73;1901;-69
2024/01/13 06:24:05;;;;;;;;;;;16.30;40.20;;;;;;1607536;73;750;-73
2024/01/13 06:26:07;;;;;;;;;;;16.40;40.20;;;;;;1611243;73;686;-76
2024/01/13 06:28:09;;;;;;;;;;;16.40;40.20;;;;;;1598876;73;1076;-73
2024/01/13 06:30:12;;;;;;;;;;;16.40;40.20;;;;;;1597635;73;668;-74
2024/01/13 06:32:14;;;;;;;;;;;16.30;40.20;;;;;;1592496;73;660;-71
2024/01/13 06:34:16;;;;;;;;;;;16.30;40.20;;;;;;1587864;73;708;-74
2024/01/13 06:36:18;;;;;;;;;;;16.40;40.20;;;;;;1605322;73;1144;-72
2024/01/13 06:38:20;;;;;;;;;;;16.40;40.20;;;;;;1603857;73;781;-74
2024/01/13 06:40:22;;;;;;;;;;;16.40;40.20;;;;;;1605421;73;710;-71
2024/01/13 06:42:23;;;;;;;;;;;16.30;40.20;;;;;;1599793;73;1931;-73
2024/01/13 06:44:25;;;;;;;;;;;16.30;40.20;;;;;;1607242;73;714;-72
2024/01/13 06:46:27;;;;;;;;;;;16.30;40.20;;;;;;1614704;73;1082;-73
2024/01/13 06:48:29;;;;;;;;;;;16.30;40.20;;;;;;1601835;73;674;-74
2024/01/13 06:50:32;;;;;;;;;;;16.30;40.20;;;;;;1604121;73;710;-72
2024/01/13 06:52:33;;;;;;;;;;;16.40;40.20;;;;;;1612279;73;700;-72
2024/01/13 06:54:36;;;;;;;;;;;16.30;40.20;;;;;;1611281;73;662;-70
2024/01/13 06:56:37;;;;;;;;;;;16.30;40.30;;;;;;1602900;73;1150;-74
2024/01/13 06:58:39;;;;;;;;;;;16.40;40.20;;;;;;1608873;73;718;-69
2024/01/13 07:00:41;;;;;;;;;;;16.30;40.20;;;;;;1595474;73;815;-70
2024/01/13 07:02:44;;;;;;;;;;;16.30;40.20;;;;;;1612309;73;1969;-75
2024/01/13 07:04:47;;;;;;;;;;;16.40;40.30;;;;;;1595442;73;691;-74
2024/01/13 07:06:49;;;;;;;;;;;16.30;40.30;;;;;;1610807;73;1112;-74
2024/01/13 07:08:51;;;;;;;;;;;16.30;40.20;;;;;;1604875;73;767;-71
2024/01/13 07:10:54;;;;;;;;;;;16.30;40.20;;;;;;1604922;73;818;-72
2024/01/13 07:12:56;;;;;;;;;;;16.40;40.20;;;;;;1595031;73;753;-73
2024/01/13 07:14:58;;;;;;;;;;;16.30;40.30;;;;;;1598125;73;686;-75
2024/01/13 07:17:00;;;;;;;;;;;16.30;40.20;;;;;;1607120;73;1127;-71
2024/01/13 07:19:02;;;;;;;;;;;16.30;40.30;;;;;;1602093;73;1546;-73
2024/01/13 07:21:05;;;;;;;;;;;16.30;40.30;;;;;;1601145;73;686;-71
2024/01/13 07:23:07;;;;;;;;;;;16.30;40.20;;;;;;1585589;73;1909;-72
2024/01/13 07:25:10;;;;;;;;;;;16.30;40.30;;;;;;1610514;73;658;-73
2024/01/13 07:27:13;;;;;;;;;;;16.30;40.30;;;;;;1592057;73;1101;-69
2024/01/13 07:29:15;;;;;;;;;;;16.30;40.30;;;;;;1603917;73;701;-71
2024/01/13 07:31:17;;;;;;;;;;;16.30;40.30;;;;;;1593507;73;685;-72
2024/01/13 07:33:19;;;;;;;;;;;16.30;40.40;;;;;;1610759;73;833;-75
2024/01/13 07:35:21;;;;;;;;;;;16.30;40.30;;;;;;1600011;73;643;-73
2024/01/13 07:37:23;;;;;;;;;;;16.30;40.30;;;;;;1587418;73;1136;-74
2024/01/13 07:39:25;;;;;;;;;;;16.30;40.30;;;;;;1604186;73;712;-74
2024/01/13 07:41:27;;;;;;;;;;;16.30;40.30;;;;;;1594583;73;1926;-72
2024/01/13 07:43:29;;;;;;;;;;;16.30;40.30;;;;;;1598411;73;719;-72
2024/01/13 07:45:31;;;;;;;;;;;16.40;40.20;;;;;;1596040;73;643;-73
2024/01/13 07:47:33;;;;;;;;;;;16.30;40.20;;;;;;1606222;73;1137;-73
2024/01/13 07:49:35;;;;;;;;;;;16.30;40.20;;;;;;1593242;73;699;-74
2024/01/13 07:51:37;;;;;;;;;;;16.40;40.20;;;;;;1594459;73;747;-74
2024/01/13 07:53:38;;;;;;;;;;;16.30;40.20;;;;;;1599608;73;724;-74
2024/01/13 07:55:40;;;;;;;;;;;16.30;40.20;;;;;;1610724;73;715;-73
2024/01/13 07:57:42;;;;;;;;;;;16.40;40.20;;;;;;1602259;73;1314;-75
2024/01/13 07:59:44;;;;;;;;;;;16.40;40.20;;;;;;1598469;73;595;-72
2024/01/13 08:01:46;;;;;;;;;;;16.30;40.10;;;;;;1586270;73;1928;-71
2024/01/13 08:03:48;;;;;;;;;;;16.30;40.10;;;;;;1600199;73;757;-72
2024/01/13 08:05:50;;;;;;;;;;;16.40;40.20;;;;;;1612669;72;709;-73
2024/01/13 08:07:52;;;;;;;;;;;16.40;40.20;;;;;;1607416;73;1166;-72
2024/01/13 08:09:53;;;;;;;;;;;16.40;40.10;;;;;;1587068;73;808;-74
2024/01/13 08:11:55;;;;;;;;;;;16.40;40.20;;;;;;1593677;73;798;-75
2024/01/13 08:13:57;;;;;;;;;;;16.40;40.10;;;;;;1604375;73;705;-74
2024/01/13 08:15:59;;;;;;;;;;;16.40;40.10;;;;;;1603025;73;1414;-72
2024/01/13 08:18:01;;;;;;;;;;;16.40;40.10;;;;;;1608366;73;1109;-72
2024/01/13 08:20:04;;;;;;;;;;;16.40;40.10;;;;;;1600365;73;778;-73
2024/01/13 08:22:06;;;;;;;;;;;16.40;40.00;;;;;;1606854;73;1926;-74
2024/01/13 08:24:08;;;;;;;;;;;16.40;40.00;;;;;;1602723;73;593;-73
2024/01/13 08:26:10;;;;;;;;;;;16.40;40.00;;;;;;1604292;73;709;-72
2024/01/13 08:28:12;;;;;;;;;;;16.40;40.00;;;;;;1609955;73;1213;-72
2024/01/13 08:30:14;;;;;;;;;;;16.40;40.00;;;;;;1604109;73;738;-73
2024/01/13 08:32:16;;;;;;;;;;;16.40;40.00;;;;;;1586167;73;725;-72
2024/01/13 08:34:17;;;;;;;;;;;16.40;40.00;;;;;;1610049;73;758;-69
2024/01/13 08:36:19;;;;;;;;;;;16.40;40.00;;;;;;1594302;73;1153;-72
2024/01/13 08:38:21;;;;;;;;;;;16.40;40.00;;;;;;1605542;73;696;-75
2024/01/13 08:40:23;;;;;;;;;;;16.40;40.00;;;;;;1602050;73;725;-70
2024/01/13 08:42:25;;;;;;;;;;;16.40;40.00;;;;;;1607605;73;1932;-75
2024/01/13 08:44:27;;;;;;;;;;;16.50;40.00;;;;;;1606453;73;686;-74
2024/01/13 08:46:29;;;;;;;;;;;16.50;40.00;;;;;;1590691;73;1154;-74
2024/01/13 08:48:31;;;;;;;;;;;16.40;39.90;;;;;;1605222;73;585;-74
2024/01/13 08:50:33;;;;;;;;;;;16.40;40.00;;;;;;1606922;73;696;-70
2024/01/13 08:52:35;;;;;;;;;;;16.50;40.00;;;;;;1603324;73;719;-75
2024/01/13 08:54:37;;;;;;;;;;;16.50;40.10;;;;;;1614763;73;694;-74
2024/01/13 08:56:39;;;;;;;;;;;16.40;39.90;;;;;;1605946;73;1288;-72
2024/01/13 08:58:41;;;;;;;;;;;16.40;39.90;;;;;;1608508;73;721;-74
2024/01/13 09:00:43;;;;;;;;;;;16.40;39.90;;;;;;1604463;73;717;-74
2024/01/13 09:02:45;;;;;;;;;;;16.40;39.90;;;;;;1597724;73;1924;-71
2024/01/13 09:04:47;;;;;;;;;;;16.40;39.90;;;;;;1595000;73;738;-73
2024/01/13 09:06:49;;;;;;;;;;;16.40;39.90;;;;;;1607958;73;1108;-75
2024/01/13 09:08:51;;;;;;;;;;;16.40;39.80;;;;;;1598665;73;705;-74
2024/01/13 09:10:53;;;;;;;;;;;16.40;39.80;;;;;;1598039;73;1432;-73
2024/01/13 09:12:55;;;;;;;;;;;16.40;39.90;;;;;;1602305;73;628;-74
2024/01/13 09:14:57;;;;;;;;;;;16.40;39.90;;;;;;1591835;73;737;-73
2024/01/13 09:16:59;;;;;;;;;;;16.40;39.80;;;;;;1597997;73;1096;-74
2024/01/13 09:19:01;;;;;;;;;;;16.40;39.80;;;;;;1597052;73;694;-71
2024/01/13 09:21:03;;;;;;;;;;;16.40;39.90;;;;;;1596322;73;750;-75
2024/01/13 09:23:05;;;;;;;;;;;16.40;39.90;;;;;;1609335;73;1908;-74
2024/01/13 09:25:07;;;;;;;;;;;16.40;39.90;;;;;;1591373;73;666;-74
2024/01/13 09:27:09;;;;;;;;;;;16.40;39.90;;;;;;1593661;73;1085;-74
2024/01/13 09:29:12;;;;;;;;;;;16.40;39.90;;;;;;1594476;73;726;-74
2024/01/13 09:31:13;;;;;;;;;;;16.40;39.80;;;;;;1596156;73;577;-72
2024/01/13 09:33:15;;;;;;;;;;;16.40;39.80;;;;;;1600963;73;769;-70
2024/01/13 09:35:18;;;;;;;;;;;16.40;39.90;;;;;;1606598;73;773;-72
2024/01/13 09:37:20;;;;;;;;;;;16.40;39.80;;;;;;1605454;73;1185;-72
2024/01/13 09:39:22;;;;;;;;;;;16.40;39.80;;;;;;1607946;73;769;-72
2024/01/13 09:41:23;;;;;;;;;;;16.40;39.90;;;;;;1597750;73;748;-72
2024/01/13 09:43:27;;;;;;;;;;;16.40;39.80;;;;;;1603280;73;1928;-73
2024/01/13 09:45:29;;;;;;;;;;;16.40;39.80;;;;;;1597052;73;861;-75
2024/01/13 09:47:30;;;;;;;;;;;16.50;39.90;;;;;;1603288;73;1100;-73
2024/01/13 09:49:32;;;;;;;;;;;16.40;39.90;;;;;;1594606;73;742;-74
2024/01/13 09:51:34;;;;;;;;;;;16.40;39.90;;;;;;1607746;73;735;-78
2024/01/13 09:53:36;;;;;;;;;;;16.40;39.80;;;;;;1601490;73;750;-74
2024/01/13 09:55:38;;;;;;;;;;;16.40;38.80;;;;;;1597364;73;626;-76
2024/01/13 09:57:40;;;;;;;;;;;16.40;39.50;;;;;;1600059;73;1156;-74
2024/01/13 09:59:42;;;;;;;;;;;16.30;39.70;;;;;;1599842;73;714;-74
2024/01/13 10:01:43;;;;;;;;;;;16.30;39.70;;;;;;1607066;72;766;-76
2024/01/13 10:03:45;;;;;;;;;;;16.40;39.70;;;;;;1591085;72;1930;-72
2024/01/13 10:05:47;;;;;;;;;;;16.30;39.80;;;;;;1586060;73;732;-73
2024/01/13 10:07:50;;;;;;;;;;;16.30;39.90;;;;;;1601686;73;1557;-73
2024/01/13 10:09:52;;;;;;;;;;;16.30;39.90;;;;;;1601119;73;764;-72
2024/01/13 10:11:54;;;;;;;;;;;16.40;40.00;;;;;;1596087;73;668;-75
2024/01/13 10:14:00;;;;;;;;;;;16.30;40.00;;;;;;1594091;73;799;-72
2024/01/13 10:16:02;;;;;;;;;;;16.30;40.00;;;;;;1597711;73;771;-73
2024/01/13 10:18:04;;;;;;;;;;;16.40;40.00;;;;;;1601169;73;1111;-68
2024/01/13 10:20:07;;;;;;;;;;;16.40;40.10;;;;;;1598182;73;669;-71
2024/01/13 10:22:09;;;;;;;;;;;16.20;40.00;;;;;;1609619;73;776;-71
2024/01/13 10:24:11;;;;;;;;;;;16.40;40.10;;;;;;1597905;73;1933;-72
2024/01/13 10:26:13;;;;;;;;;;;16.40;40.10;;;;;;1597080;73;767;-72
2024/01/13 10:28:15;;;;;;;;;;;16.40;40.10;;;;;;1597774;73;1083;-73
2024/01/13 10:30:17;;;;;;;;;;;16.40;40.10;;;;;;1605936;73;684;-70
2024/01/13 10:32:19;;;;;;;;;;;16.40;40.10;;;;;;1608235;73;789;-75
2024/01/13 10:34:21;;;;;;;;;;;16.40;40.20;;;;;;1598776;73;764;-72
2024/01/13 10:36:24;;;;;;;;;;;16.50;40.30;;;;;;1607920;73;1139;-73
2024/01/13 10:38:26;;;;;;;;;;;16.50;40.30;;;;;;1606326;73;786;-79
2024/01/13 10:40:28;;;;;;;;;;;16.50;40.20;;;;;;1595560;73;802;-69
2024/01/13 10:42:32;;;;;;;;;;;16.50;40.30;;;;;;1591474;73;1937;-69
2024/01/13 10:44:33;;;;;;;;;;;16.50;40.30;;;;;;1589810;73;582;-72
2024/01/13 10:46:38;;;;;;;;;;;16.50;40.30;;;;;;1600807;73;1150;-70
2024/01/13 10:48:45;;;;;;;;;;;16.60;40.40;;;;;;1587833;73;627;-78
2024/01/13 10:50:47;;;;;;;;;;;16.50;40.40;;;;;;1596220;73;731;-75
2024/01/13 10:52:53;;;;;;;;;;;16.50;40.30;;;;;;1597224;73;735;-76
2024/01/13 10:54:57;;;;;;;;;;;16.60;40.40;;;;;;1605009;73;984;-78
2024/01/13 10:56:58;;;;;;;;;;;16.60;40.40;;;;;;1599116;73;1167;-72
2024/01/13 10:59:00;;;;;;;;;;;16.60;40.50;;;;;;1598352;73;799;-79
2024/01/13 11:01:02;;;;;;;;;;;16.60;40.50;;;;;;1600170;73;767;-75
2024/01/13 11:03:04;;;;;;;;;;;16.70;35.90;;;;;;1594192;73;1962;-71
2024/01/13 11:05:06;;;;;;;;;;;16.60;38.40;;;;;;1600568;73;706;-72
2024/01/13 11:07:08;;;;;;;;;;;16.60;39.00;;;;;;1592264;73;1093;-75
2024/01/13 11:09:10;;;;;;;;;;;16.60;39.70;;;;;;1597360;73;861;-76
2024/01/13 11:11:12;;;;;;;;;;;16.60;39.70;;;;;;1590519;73;675;-75
2024/01/13 11:13:16;;;;;;;;;;;16.50;31.70;;;;;;1600097;73;613;-75
2024/01/13 11:15:20;;;;;;;;;;;16.10;33.50;;;;;;1590620;73;619;-75
2024/01/13 11:17:22;;;;;;;;;;;16.10;36.90;;;;;;1589319;73;1421;-74
2024/01/13 11:19:24;;;;;;;;;;;16.00;37.80;;;;;;1599038;73;774;-75
2024/01/13 11:21:27;;;;;;;;;;;16.10;38.40;;;;;;1593977;73;754;-75
2024/01/13 11:23:31;;;;;;;;;;;16.20;38.60;;;;;;1601127;73;1927;-73
2024/01/13 11:25:34;;;;;;;;;;;16.80;39.10;;;;;;1605330;73;1768;-75
2024/01/13 11:27:36;;;;;;;;;;;16.30;38.90;;;;;;1590544;72;1135;-71
2024/01/13 11:29:38;;;;;;;;;;;16.30;38.90;;;;;;1595991;73;633;-73
2024/01/13 11:31:41;;;;;;;;;;;16.40;38.70;;;;;;1567504;74;1178;-76
2024/01/13 11:33:43;;;;;;;;;;;16.40;39.00;;;;;;1602381;73;739;-74
2024/01/13 11:35:48;;;;;;;;;;;16.40;39.10;;;;;;1598207;73;787;-68
2024/01/13 11:37:54;;;;;;;;;;;16.50;39.20;;;;;;1592699;73;1222;-73
2024/01/13 11:39:54;;;;;;;;;;;16.40;39.20;;;;;;1603849;73;1074;-73
2024/01/13 11:41:56;;;;;;;;;;;16.50;39.40;;;;;;1559020;74;1191;-74
2024/01/13 11:43:58;;;;;;;;;;;16.50;39.60;;;;;;1606253;73;1913;-75
2024/01/13 11:46:00;;;;;;;;;;;16.50;40.00;;;;;;1607509;73;659;-71
2024/01/13 11:48:06;;;;;;;;;;;16.50;40.10;;;;;;1594887;73;1139;-74
2024/01/13 11:50:13;;;;;;;;;;;16.60;40.00;;;;;;1587842;73;1043;-75
2024/01/13 11:52:15;;;;;;;;;;;16.70;40.10;;;;;;1596390;73;1011;-74
2024/01/13 11:54:17;;;;;;;;;;;16.70;40.10;;;;;;1595720;73;720;-76
2024/01/13 11:56:19;;;;;;;;;;;16.70;40.10;;;;;;1602463;73;1122;-76
2024/01/13 11:58:21;;;;;;;;;;;16.70;40.20;;;;;;1603855;73;723;-78
2024/01/13 12:00:23;;;;;;;;;;;16.70;36.80;;;;;;1597075;73;1537;-79
2024/01/13 12:02:25;;;;;;;;;;;16.60;34.30;;;;;;1597690;73;611;-76
2024/01/13 12:04:28;;;;;;;;;;;16.50;34.20;;;;;;1601100;73;1964;-73
2024/01/13 12:06:30;;;;;;;;;;;16.40;35.00;;;;;;1587360;73;1228;-73
2024/01/13 12:08:31;;;;;;;;;;;16.30;36.40;;;;;;1592254;73;582;-75